sensor_id;sensor_type;location;lat;lon;timestamp;pressure;altitude;pressure_sealevel;temperature;humidity
22582;BME280;47125;48.542;9.052;2023-04-27T00:09:21;96068.16;;;10.82;56.26
22582;BME280;47125;48.542;9.052;2023-04-27T00:19:25;96073.88;;;10.74;56.70
22582;BME280;47125;48.542;9.052;2023-04-27T00:29:28;96068.53;;;10.74;56.07
22582;BME280;47125;48.542;9.052;2023-04-27T00:39:34;96061.84;;;10.60;56.48
22582;BME280;47125;48.542;9.052;2023-04-27T00:49:37;96050.34;;;10.60;58.36
22582;BME280;47125;48.542;9.052;2023-04-27T00:59:41;96048.34;;;10.55;58.08
22582;BME280;47125;48.542;9.052;2023-04-27T01:09:43;96043.94;;;10.49;55.54
22582;BME280;47125;48.542;9.052;2023-04-27T01:19:48;96046.53;;;10.44;55.74
22582;BME280;47125;48.542;9.052;2023-04-27T01:29:52;96059.88;;;10.44;59.65
22582;BME280;47125;48.542;9.052;2023-04-27T01:39:55;96065.66;;;10.52;59.99
22582;BME280;47125;48.542;9.052;2023-04-27T01:49:59;96048.50;;;10.37;61.25
22582;BME280;47125;48.542;9.052;2023-04-27T02:00:01;96062.00;;;10.30;62.96
22582;BME280;47125;48.542;9.052;2023-04-27T02:10:07;96057.88;;;10.39;62.05
22582;BME280;47125;48.542;9.052;2023-04-27T02:20:10;96078.94;;;10.24;63.04
22582;BME280;47125;48.542;9.052;2023-04-27T02:30:14;96077.41;;;10.17;63.63
22582;BME280;47125;48.542;9.052;2023-04-27T02:40:16;96067.44;;;10.24;63.82
22582;BME280;47125;48.542;9.052;2023-04-27T02:50:20;96072.53;;;10.25;64.15
22582;BME280;47125;48.542;9.052;2023-04-27T03:00:23;96068.25;;;10.36;63.38
22582;BME280;47125;48.542;9.052;2023-04-27T03:10:26;96069.38;;;10.40;63.68
22582;BME280;47125;48.542;9.052;2023-04-27T03:20:29;96076.25;;;10.36;64.02
22582;BME280;47125;48.542;9.052;2023-04-27T03:30:33;96068.13;;;10.31;64.82
22582;BME280;47125;48.542;9.052;2023-04-27T03:40:35;96078.94;;;10.24;66.53
22582;BME280;47125;48.542;9.052;2023-04-27T03:50:39;96088.44;;;10.20;65.63
22582;BME280;47125;48.542;9.052;2023-04-27T04:00:42;96090.28;;;10.20;66.40
22582;BME280;47125;48.542;9.052;2023-04-27T04:10:46;96085.59;;;10.04;67.52
22582;BME280;47125;48.542;9.052;2023-04-27T04:20:48;96095.03;;;10.06;66.94
22582;BME280;47125;48.542;9.052;2023-04-27T04:30:52;96104.16;;;9.87;68.56
22582;BME280;47125;48.542;9.052;2023-04-27T04:40:54;96103.91;;;9.88;68.81
22582;BME280;47125;48.542;9.052;2023-04-27T04:50:58;96101.03;;;9.90;68.48
22582;BME280;47125;48.542;9.052;2023-04-27T05:01:03;96109.03;;;10.02;68.17
22582;BME280;47125;48.542;9.052;2023-04-27T05:11:07;96106.19;;;10.15;67.99
22582;BME280;47125;48.542;9.052;2023-04-27T05:21:12;96108.22;;;10.13;68.23
22582;BME280;47125;48.542;9.052;2023-04-27T05:31:16;96107.69;;;10.22;67.09
22582;BME280;47125;48.542;9.052;2023-04-27T05:41:19;96129.41;;;10.26;67.04
22582;BME280;47125;48.542;9.052;2023-04-27T05:51:22;96121.03;;;10.34;67.53
22582;BME280;47125;48.542;9.052;2023-04-27T06:01:25;96139.16;;;10.43;67.17
22582;BME280;47125;48.542;9.052;2023-04-27T06:11:29;96139.50;;;10.59;64.63
22582;BME280;47125;48.542;9.052;2023-04-27T06:21:31;96155.75;;;10.80;62.53
22582;BME280;47125;48.542;9.052;2023-04-27T06:31:35;96158.38;;;11.03;62.16
22582;BME280;47125;48.542;9.052;2023-04-27T06:41:38;96168.19;;;11.15;62.67
22582;BME280;47125;48.542;9.052;2023-04-27T06:51:42;96164.31;;;11.34;62.32
22582;BME280;47125;48.542;9.052;2023-04-27T07:01:46;96171.19;;;11.41;62.86
22582;BME280;47125;48.542;9.052;2023-04-27T07:11:50;96164.16;;;11.52;61.78
22582;BME280;47125;48.542;9.052;2023-04-27T07:21:53;96169.44;;;11.63;61.93
22582;BME280;47125;48.542;9.052;2023-04-27T07:31:57;96169.78;;;11.67;61.65
22582;BME280;47125;48.542;9.052;2023-04-27T07:42:01;96162.75;;;11.89;60.05
22582;BME280;47125;48.542;9.052;2023-04-27T07:52:05;96164.22;;;12.13;60.86
22582;BME280;47125;48.542;9.052;2023-04-27T08:02:08;96159.63;;;12.26;59.22
22582;BME280;47125;48.542;9.052;2023-04-27T08:12:21;96158.19;;;12.56;57.97
22582;BME280;47125;48.542;9.052;2023-04-27T08:22:23;96165.72;;;12.76;56.79
22582;BME280;47125;48.542;9.052;2023-04-27T08:32:27;96161.56;;;12.85;55.46
22582;BME280;47125;48.542;9.052;2023-04-27T08:42:30;96142.34;;;13.10;55.15
22582;BME280;47125;48.542;9.052;2023-04-27T08:52:33;96135.75;;;13.39;54.14
22582;BME280;47125;48.542;9.052;2023-04-27T09:02:36;96145.03;;;13.53;52.59
22582;BME280;47125;48.542;9.052;2023-04-27T09:12:40;96132.28;;;13.65;51.27
22582;BME280;47125;48.542;9.052;2023-04-27T09:22:42;96142.09;;;14.08;52.27
22582;BME280;47125;48.542;9.052;2023-04-27T09:32:51;96136.25;;;14.48;45.27
22582;BME280;47125;48.542;9.052;2023-04-27T09:42:54;96137.00;;;14.39;46.98
22582;BME280;47125;48.542;9.052;2023-04-27T09:52:58;96138.38;;;14.88;46.25
22582;BME280;47125;48.542;9.052;2023-04-27T10:03:04;96137.19;;;15.11;44.01
22582;BME280;47125;48.542;9.052;2023-04-27T10:13:18;96133.69;;;15.20;44.30
22582;BME280;47125;48.542;9.052;2023-04-27T10:23:21;96134.97;;;15.60;43.51
22582;BME280;47125;48.542;9.052;2023-04-27T10:33:25;96137.75;;;16.15;46.39
22582;BME280;47125;48.542;9.052;2023-04-27T10:43:28;96131.56;;;16.20;46.58
22582;BME280;47125;48.542;9.052;2023-04-27T10:53:34;96122.66;;;16.44;44.49
22582;BME280;47125;48.542;9.052;2023-04-27T11:03:36;96121.06;;;16.64;43.78
22582;BME280;47125;48.542;9.052;2023-04-27T11:13:41;96127.41;;;17.13;42.33
22582;BME280;47125;48.542;9.052;2023-04-27T11:23:43;96109.66;;;16.97;42.12
22582;BME280;47125;48.542;9.052;2023-04-27T11:33:48;96097.34;;;17.45;42.93
22582;BME280;47125;48.542;9.052;2023-04-27T11:43:51;96109.63;;;17.71;41.26
22582;BME280;47125;48.542;9.052;2023-04-27T11:53:55;96109.97;;;17.59;41.98
22582;BME280;47125;48.542;9.052;2023-04-27T12:03:57;96094.75;;;18.12;41.76
22582;BME280;47125;48.542;9.052;2023-04-27T12:14:04;96080.72;;;18.44;39.59
22582;BME280;47125;48.542;9.052;2023-04-27T12:24:07;96096.97;;;18.39;41.59
22582;BME280;47125;48.542;9.052;2023-04-27T12:34:11;96087.41;;;18.23;42.29
22582;BME280;47125;48.542;9.052;2023-04-27T12:44:14;96100.22;;;18.07;40.98
22582;BME280;47125;48.542;9.052;2023-04-27T12:54:18;96083.06;;;18.22;41.86
22582;BME280;47125;48.542;9.052;2023-04-27T13:04:20;96072.31;;;18.75;40.08
22582;BME280;47125;48.542;9.052;2023-04-27T13:14:25;96064.06;;;18.32;40.57
22582;BME280;47125;48.542;9.052;2023-04-27T13:24:28;96056.47;;;18.34;40.53
22582;BME280;47125;48.542;9.052;2023-04-27T13:34:34;96065.78;;;18.18;40.71
22582;BME280;47125;48.542;9.052;2023-04-27T13:44:37;96060.19;;;18.09;41.17
22582;BME280;47125;48.542;9.052;2023-04-27T13:54:40;96065.06;;;18.41;40.89
22582;BME280;47125;48.542;9.052;2023-04-27T14:04:43;96063.16;;;17.74;42.59
22582;BME280;47125;48.542;9.052;2023-04-27T14:14:47;96058.81;;;17.78;41.73
22582;BME280;47125;48.542;9.052;2023-04-27T14:24:49;96048.16;;;18.59;40.65
22582;BME280;47125;48.542;9.052;2023-04-27T14:34:53;96050.50;;;18.90;40.10
22582;BME280;47125;48.542;9.052;2023-04-27T14:44:56;96049.00;;;18.79;40.67
22582;BME280;47125;48.542;9.052;2023-04-27T14:55:00;96059.00;;;18.83;40.62
22582;BME280;47125;48.542;9.052;2023-04-27T15:05:02;96050.94;;;19.20;39.56
22582;BME280;47125;48.542;9.052;2023-04-27T15:15:07;96048.56;;;19.61;39.81
22582;BME280;47125;48.542;9.052;2023-04-27T15:25:10;96039.66;;;18.71;40.45
22582;BME280;47125;48.542;9.052;2023-04-27T15:35:14;96037.84;;;18.85;40.07
22582;BME280;47125;48.542;9.052;2023-04-27T15:45:17;96041.94;;;18.83;41.02
22582;BME280;47125;48.542;9.052;2023-04-27T15:55:21;96037.47;;;18.44;42.19
22582;BME280;47125;48.542;9.052;2023-04-27T16:05:24;96014.81;;;18.35;43.04
22582;BME280;47125;48.542;9.052;2023-04-27T16:15:27;96000.88;;;18.76;40.38
22582;BME280;47125;48.542;9.052;2023-04-27T16:25:30;95994.94;;;18.97;41.83
22582;BME280;47125;48.542;9.052;2023-04-27T16:35:34;95987.50;;;19.08;42.04
22582;BME280;47125;48.542;9.052;2023-04-27T16:45:37;95990.94;;;19.32;39.79
22582;BME280;47125;48.542;9.052;2023-04-27T16:55:43;95998.19;;;19.18;39.61
22582;BME280;47125;48.542;9.052;2023-04-27T17:05:45;95987.91;;;18.96;40.04
22582;BME280;47125;48.542;9.052;2023-04-27T17:15:50;95982.75;;;18.24;41.05
22582;BME280;47125;48.542;9.052;2023-04-27T17:25:52;95990.81;;;18.29;42.57
22582;BME280;47125;48.542;9.052;2023-04-27T17:35:56;95996.75;;;18.31;46.38
22582;BME280;47125;48.542;9.052;2023-04-27T17:45:58;95993.06;;;17.88;45.72
22582;BME280;47125;48.542;9.052;2023-04-27T17:56:02;95980.38;;;17.54;47.55
22582;BME280;47125;48.542;9.052;2023-04-27T18:06:05;95992.13;;;17.74;47.20
22582;BME280;47125;48.542;9.052;2023-04-27T18:16:09;95972.44;;;17.68;47.43
22582;BME280;47125;48.542;9.052;2023-04-27T18:26:12;95992.53;;;17.57;47.33
22582;BME280;47125;48.542;9.052;2023-04-27T18:36:15;95995.31;;;17.37;48.19
22582;BME280;47125;48.542;9.052;2023-04-27T18:46:19;95992.50;;;17.08;49.41
22582;BME280;47125;48.542;9.052;2023-04-27T18:56:23;95993.78;;;16.46;50.59
22582;BME280;47125;48.542;9.052;2023-04-27T19:06:26;95990.63;;;16.24;52.35
22582;BME280;47125;48.542;9.052;2023-04-27T19:16:30;96013.03;;;15.84;53.09
22582;BME280;47125;48.542;9.052;2023-04-27T19:26:32;96014.63;;;16.16;51.69
22582;BME280;47125;48.542;9.052;2023-04-27T19:36:36;96003.03;;;15.60;52.02
22582;BME280;47125;48.542;9.052;2023-04-27T19:46:39;95992.03;;;15.76;51.29
22582;BME280;47125;48.542;9.052;2023-04-27T19:56:42;95994.38;;;16.28;50.41
22582;BME280;47125;48.542;9.052;2023-04-27T20:06:45;95996.06;;;15.79;51.67
22582;BME280;47125;48.542;9.052;2023-04-27T20:27:53;95972.06;;;16.08;47.87
22582;BME280;47125;48.542;9.052;2023-04-27T20:37:55;95974.66;;;16.48;49.80
22582;BME280;47125;48.542;9.052;2023-04-27T20:47:59;95965.19;;;16.66;49.65
22582;BME280;47125;48.542;9.052;2023-04-27T20:58:03;95965.47;;;16.59;48.28
22582;BME280;47125;48.542;9.052;2023-04-27T21:08:07;95963.28;;;16.76;49.40
22582;BME280;47125;48.542;9.052;2023-04-27T21:18:10;95953.88;;;16.59;48.81
22582;BME280;47125;48.542;9.052;2023-04-27T21:28:31;95929.75;;;16.08;50.35
22582;BME280;47125;48.542;9.052;2023-04-27T21:38:33;95926.56;;;15.81;49.27
22582;BME280;47125;48.542;9.052;2023-04-27T21:48:37;95932.50;;;15.63;49.79
22582;BME280;47125;48.542;9.052;2023-04-27T21:58:39;95916.59;;;15.36;49.97
22582;BME280;47125;48.542;9.052;2023-04-27T22:08:43;95922.78;;;15.21;51.63
22582;BME280;47125;48.542;9.052;2023-04-27T22:18:46;95917.66;;;15.10;53.27
22582;BME280;47125;48.542;9.052;2023-04-27T22:28:50;95917.38;;;14.91;54.04
22582;BME280;47125;48.542;9.052;2023-04-27T22:38:52;95914.66;;;14.81;54.26
22582;BME280;47125;48.542;9.052;2023-04-27T22:48:56;95931.81;;;14.60;55.55
22582;BME280;47125;48.542;9.052;2023-04-27T22:58:58;95912.41;;;14.48;57.55
22582;BME280;47125;48.542;9.052;2023-04-27T23:09:02;95892.56;;;14.59;56.42
22582;BME280;47125;48.542;9.052;2023-04-27T23:19:05;95908.16;;;14.57;57.48
22582;BME280;47125;48.542;9.052;2023-04-27T23:29:09;95911.38;;;14.54;58.45
22582;BME280;47125;48.542;9.052;2023-04-27T23:39:11;95882.28;;;14.36;60.33
22582;BME280;47125;48.542;9.052;2023-04-27T23:49:15;95863.53;;;14.51;58.11
22582;BME280;47125;48.542;9.052;2023-04-27T23:59:18;95865.13;;;14.47;59.29
